Appleton, Wisconsin
Current Conditions -  °F | °C
As of 5:45 AM on Friday 31 Oct 2014 (Local Time) from KATW Reporting Station
Overcast Overcast  
Wind Chill: -5°   Ceiling: 3300
Heat Index:   Visibility: 10mi
Dew Point: -5°   Wind: 24mph
Humidity: 60%   Direction: 360°N
Pressure: 30.15"   Gusts: 35mph
Location:  44.26°N, 88.42°W
Report Text: KATW 311045Z 36021G30KT 10SM OVC033 02/M05 A3015
Loading
Personal Weather Stations






























Interactive Weather Map New forecast layout! Learn more

10-Day Weather Forecast

Advertisements
Track Severe Weather on mobile